Terminal Aerodrome Forecast
Issued by NWS Kansas City/Pleasant Hill, MO

Home | Current Version | Previous Version | Text Only | Print | Product List | Glossary On
Versions: 1 2 3 4 5 6 7 8 9 10 11 12 13 14 15 16 17 18 19
000
FTUS43 KEAX 261800 AAA
TAFMCI
TAF AMD
KMCI 261804Z 2618/2718 28007KT P6SM BKN020
     FM262300 36005KT P6SM VCSH OVC007
     FM270700 31012KT P6SM BKN009=

USA.gov is the U.S. government's official web portal to all federal, state and local government web resources and services.